createdAt,value
2018-04-18T00:00:12.009Z,26.90
2018-04-18T00:01:12.028Z,25.40
2018-04-18T00:02:12.045Z,24.40
2018-04-18T00:03:12.061Z,22.90
2018-04-18T00:04:12.077Z,24.90
2018-04-18T00:05:12.092Z,26.60
2018-04-18T00:06:12.109Z,29.70
2018-04-18T00:07:12.123Z,27.70
2018-04-18T00:08:12.150Z,25.60
2018-04-18T00:09:12.167Z,25.80
2018-04-18T00:10:12.179Z,22.90
2018-04-18T00:12:12.225Z,27.20
2018-04-18T00:13:12.261Z,28.30
2018-04-18T00:14:12.241Z,29.10
2018-04-18T00:15:12.258Z,25.70
2018-04-18T00:16:12.275Z,24.30
2018-04-18T00:17:12.290Z,27.30
2018-04-18T00:18:12.307Z,26.80
2018-04-18T00:19:12.323Z,25.70
2018-04-18T00:20:12.337Z,26.60
2018-04-18T00:21:12.470Z,24.20
2018-04-18T00:22:12.381Z,24.50
2018-04-18T00:23:12.475Z,23.50
2018-04-18T00:24:12.407Z,21.40
2018-04-18T00:25:12.425Z,25.00
2018-04-18T00:26:12.436Z,24.30
2018-04-18T00:27:12.454Z,25.20
2018-04-18T00:28:12.470Z,23.40
2018-04-18T00:29:12.487Z,29.50
2018-04-18T00:30:12.504Z,28.10
2018-04-18T00:31:12.519Z,26.10
2018-04-18T00:32:12.534Z,25.10
2018-04-18T00:33:12.554Z,24.00
2018-04-18T00:34:12.570Z,27.80
2018-04-18T00:35:12.586Z,26.80
2018-04-18T00:36:12.602Z,28.10
2018-04-18T00:37:12.622Z,25.30
2018-04-18T00:38:12.634Z,21.80
2018-04-18T00:39:12.651Z,25.70
2018-04-18T00:40:12.667Z,22.60
2018-04-18T00:41:12.684Z,25.90
2018-04-18T00:42:12.700Z,23.90
2018-04-18T00:43:12.716Z,23.50
2018-04-18T00:44:12.731Z,25.30
2018-04-18T00:45:12.749Z,24.70
2018-04-18T00:46:12.767Z,25.90
2018-04-18T00:47:12.782Z,27.20
2018-04-18T00:48:12.801Z,24.50
2018-04-18T00:49:12.816Z,25.20
2018-04-18T00:50:12.832Z,25.20
2018-04-18T00:51:12.848Z,25.70
2018-04-18T00:52:12.865Z,27.80
2018-04-18T00:53:12.878Z,23.30
2018-04-18T00:54:12.890Z,24.30
2018-04-18T00:55:13.013Z,24.60
2018-04-18T00:56:12.982Z,26.30
2018-04-18T00:57:12.940Z,24.10
2018-04-18T00:58:12.959Z,21.20
2018-04-18T00:59:12.973Z,24.50
2018-04-18T01:00:12.990Z,25.10
2018-04-18T01:01:13.006Z,24.10
2018-04-18T01:02:13.022Z,22.40
2018-04-18T01:03:13.038Z,25.90
2018-04-18T01:04:13.055Z,22.20
2018-04-18T01:05:13.071Z,24.30
2018-04-18T01:06:13.089Z,22.90
2018-04-18T01:07:13.103Z,24.50
2018-04-18T01:08:13.119Z,23.10
2018-04-18T01:09:13.135Z,21.50
2018-04-18T01:10:13.155Z,20.10
2018-04-18T01:11:13.173Z,22.10
2018-04-18T01:12:13.184Z,24.90
2018-04-18T01:13:13.203Z,21.70
2018-04-18T01:14:13.219Z,25.30
2018-04-18T01:15:13.235Z,23.60
2018-04-18T01:16:13.252Z,24.90
2018-04-18T01:17:13.266Z,25.10
2018-04-18T01:18:13.294Z,22.70
2018-04-18T01:19:13.325Z,23.80
2018-04-18T01:20:13.315Z,23.80
2018-04-18T01:21:13.333Z,24.10
2018-04-18T01:22:13.350Z,22.30
2018-04-18T01:23:13.376Z,27.80
2018-04-18T01:24:13.383Z,25.10
2018-04-18T01:25:13.399Z,23.80
2018-04-18T01:26:13.414Z,26.00
2018-04-18T01:27:13.462Z,23.70
2018-04-18T01:28:13.458Z,26.10
2018-04-18T01:29:13.462Z,25.80
2018-04-18T01:30:13.521Z,24.80
2018-04-18T01:31:13.495Z,25.60
2018-04-18T01:32:13.511Z,24.30
2018-04-18T01:33:13.528Z,25.10
2018-04-18T01:34:13.548Z,25.10
2018-04-18T01:35:13.560Z,24.50
2018-04-18T01:36:13.577Z,27.70
2018-04-18T01:37:13.602Z,26.80
2018-04-18T01:38:13.608Z,27.30
2018-04-18T01:39:13.625Z,29.00
2018-04-18T01:40:13.651Z,28.00
2018-04-18T01:41:13.663Z,25.70
2018-04-18T01:42:13.676Z,26.50
2018-04-18T01:43:13.689Z,26.30
2018-04-18T01:44:13.708Z,26.30
2018-04-18T01:45:13.722Z,29.30
2018-04-18T01:46:13.739Z,27.90
2018-04-18T01:47:13.756Z,26.80
2018-04-18T01:48:13.774Z,29.00
2018-04-18T01:49:13.788Z,29.00
2018-04-18T01:50:13.805Z,26.40
2018-04-18T01:51:13.822Z,28.30
2018-04-18T01:52:13.840Z,27.20
2018-04-18T01:53:13.856Z,26.60
2018-04-18T01:54:13.868Z,26.70
2018-04-18T01:55:13.891Z,27.90
2018-04-18T01:56:13.900Z,27.30
2018-04-18T01:57:13.918Z,27.80
2018-04-18T01:58:13.936Z,26.40
2018-04-18T01:59:13.956Z,26.40
2018-04-18T02:00:13.970Z,28.30
2018-04-18T02:01:14.007Z,33.40
2018-04-18T02:02:14.003Z,28.70
2018-04-18T02:03:14.014Z,29.70
2018-04-18T02:04:14.031Z,28.80
2018-04-18T02:05:14.046Z,28.90
2018-04-18T02:06:14.068Z,27.60
2018-04-18T02:07:14.079Z,29.40
2018-04-18T02:08:14.097Z,30.20
2018-04-18T02:09:14.111Z,29.40
2018-04-18T02:10:14.131Z,31.90
2018-04-18T02:11:14.142Z,31.40
2018-04-18T02:12:14.163Z,28.90
2018-04-18T02:13:14.175Z,29.60
2018-04-18T02:14:14.192Z,31.50
2018-04-18T02:15:14.207Z,31.00
2018-04-18T02:16:14.223Z,29.10
2018-04-18T02:17:14.239Z,31.90
2018-04-18T02:18:14.256Z,31.30
2018-04-18T02:19:14.271Z,30.90
2018-04-18T02:20:14.287Z,28.80
2018-04-18T02:21:14.306Z,31.30
2018-04-18T02:22:14.336Z,31.10
2018-04-18T02:23:14.350Z,28.60
2018-04-18T02:24:14.352Z,31.90
2018-04-18T02:25:14.368Z,31.40
2018-04-18T02:26:14.385Z,32.30
2018-04-18T02:27:14.400Z,30.10
2018-04-18T02:28:14.415Z,32.60
2018-04-18T02:29:14.433Z,30.00
2018-04-18T02:30:14.448Z,29.80
2018-04-18T02:31:14.468Z,32.90
2018-04-18T02:32:14.479Z,30.60
2018-04-18T02:33:14.498Z,30.10
2018-04-18T02:34:14.527Z,30.20
2018-04-18T02:35:14.529Z,27.70
2018-04-18T02:36:14.551Z,29.40
2018-04-18T02:37:14.562Z,30.90
2018-04-18T02:38:14.578Z,30.70
2018-04-18T02:39:14.593Z,29.20
2018-04-18T02:40:14.608Z,28.30
2018-04-18T02:41:14.626Z,31.90
2018-04-18T02:42:14.641Z,30.80
2018-04-18T02:43:14.656Z,32.20
2018-04-18T02:44:14.671Z,28.50
2018-04-18T02:45:14.690Z,29.90
2018-04-18T02:46:14.705Z,27.90
2018-04-18T02:47:14.726Z,31.30
2018-04-18T02:48:14.736Z,31.10
2018-04-18T02:49:14.755Z,30.10
2018-04-18T02:50:14.768Z,32.20
2018-04-18T02:51:14.784Z,32.30
2018-04-18T02:52:14.799Z,32.90
2018-04-18T02:53:14.815Z,30.70
2018-04-18T02:54:14.831Z,29.70
2018-04-18T02:55:14.855Z,33.90
2018-04-18T02:56:14.863Z,33.70
2018-04-18T02:57:14.879Z,33.20
2018-04-18T02:58:14.905Z,32.50
2018-04-18T02:59:14.911Z,31.00
2018-04-18T03:00:14.928Z,32.20
2018-04-18T03:01:14.945Z,30.70
2018-04-18T03:02:14.960Z,35.30
2018-04-18T03:03:14.978Z,30.20
2018-04-18T03:04:15.017Z,32.10
2018-04-18T03:05:15.010Z,34.40
2018-04-18T03:06:15.089Z,34.10
2018-04-18T03:07:15.045Z,32.40
2018-04-18T03:08:15.069Z,32.60
2018-04-18T03:09:15.070Z,30.40
2018-04-18T03:10:15.087Z,31.90
2018-04-18T03:11:15.106Z,33.80
2018-04-18T03:12:15.117Z,33.60
2018-04-18T03:13:15.136Z,30.60
2018-04-18T03:14:15.155Z,30.20
2018-04-18T03:15:15.167Z,35.30
2018-04-18T03:16:15.182Z,34.10
2018-04-18T03:17:15.217Z,33.20
2018-04-18T03:18:15.214Z,35.90
2018-04-18T03:19:15.236Z,34.50
2018-04-18T03:20:15.247Z,34.40
2018-04-18T03:21:15.262Z,33.30
2018-04-18T03:22:15.278Z,34.80
2018-04-18T03:23:15.299Z,37.10
2018-04-18T03:24:15.311Z,36.70
2018-04-18T03:25:15.326Z,32.50
2018-04-18T03:26:15.342Z,35.00
2018-04-18T03:27:15.359Z,33.70
2018-04-18T03:28:15.374Z,33.30
2018-04-18T03:29:15.393Z,36.70
2018-04-18T03:30:15.435Z,35.90
2018-04-18T03:31:15.422Z,32.70
2018-04-18T03:32:15.438Z,35.20
2018-04-18T03:33:15.458Z,34.70
2018-04-18T03:34:15.472Z,33.60
2018-04-18T03:35:15.485Z,34.90
2018-04-18T03:36:15.502Z,32.00
2018-04-18T03:37:15.552Z,34.10
2018-04-18T03:38:15.636Z,34.00
2018-04-18T03:39:15.551Z,33.90
2018-04-18T03:40:15.566Z,31.90
2018-04-18T03:41:15.583Z,32.40
2018-04-18T03:42:15.597Z,34.20
2018-04-18T03:43:15.615Z,35.50
2018-04-18T03:44:15.633Z,33.50
2018-04-18T03:45:15.645Z,33.90
2018-04-18T03:46:15.662Z,34.70
2018-04-18T03:47:15.676Z,36.50
2018-04-18T03:48:15.693Z,36.20
2018-04-18T03:49:15.709Z,35.30
2018-04-18T03:50:15.734Z,34.20
2018-04-18T03:51:15.739Z,35.30
2018-04-18T03:52:15.756Z,35.60
2018-04-18T03:53:15.771Z,32.90
2018-04-18T03:54:15.794Z,35.90
2018-04-18T03:55:15.804Z,34.90
2018-04-18T03:56:15.825Z,33.40
2018-04-18T03:57:15.843Z,35.40
2018-04-18T03:58:15.864Z,35.10
2018-04-18T03:59:15.869Z,34.50
2018-04-18T04:00:15.889Z,35.70
2018-04-18T04:01:15.901Z,35.40
2018-04-18T04:02:15.959Z,37.00
2018-04-18T04:03:15.948Z,34.70
2018-04-18T04:04:15.951Z,35.30
2018-04-18T04:05:15.961Z,33.60
2018-04-18T04:06:15.985Z,34.10
2018-04-18T04:07:15.994Z,37.10
2018-04-18T04:08:16.009Z,36.10
2018-04-18T04:09:16.029Z,35.40
2018-04-18T04:10:16.047Z,36.20
2018-04-18T04:11:16.058Z,38.40
2018-04-18T04:12:16.071Z,38.80
2018-04-18T04:13:16.088Z,36.30
2018-04-18T04:14:16.113Z,33.80
2018-04-18T04:15:16.120Z,32.20
2018-04-18T04:16:16.135Z,35.30
2018-04-18T04:17:16.151Z,37.40
2018-04-18T04:18:16.166Z,33.40
2018-04-18T04:19:16.182Z,34.70
2018-04-18T04:20:16.903Z,33.90
2018-04-18T04:21:16.226Z,37.30
2018-04-18T04:22:16.231Z,34.60
2018-04-18T04:23:16.253Z,35.80
2018-04-18T04:24:16.259Z,35.10
2018-04-18T04:25:16.277Z,37.90
2018-04-18T04:26:16.297Z,36.50
2018-04-18T04:27:16.309Z,35.50
2018-04-18T04:28:16.323Z,36.10
2018-04-18T04:29:16.339Z,35.90
2018-04-18T04:30:16.373Z,36.40
2018-04-18T04:31:16.371Z,35.70
2018-04-18T04:32:16.392Z,38.10
2018-04-18T04:33:16.407Z,42.70
2018-04-18T04:34:16.419Z,37.60
2018-04-18T04:35:16.433Z,39.00
2018-04-18T04:36:16.456Z,35.00
2018-04-18T04:37:16.473Z,37.50
2018-04-18T04:38:16.482Z,38.70
2018-04-18T04:39:16.656Z,38.80
2018-04-18T04:40:16.696Z,33.00
2018-04-18T04:41:16.529Z,36.80
2018-04-18T04:42:16.687Z,36.90
2018-04-18T04:43:16.558Z,35.80
2018-04-18T04:44:16.603Z,37.20
2018-04-18T04:45:16.592Z,34.90
2018-04-18T04:46:16.606Z,36.80
2018-04-18T04:47:16.624Z,37.70
2018-04-18T04:48:16.645Z,39.10
2018-04-18T04:49:16.655Z,38.40
2018-04-18T04:50:16.672Z,42.10
2018-04-18T04:51:16.690Z,37.10
2018-04-18T04:52:16.702Z,36.80
2018-04-18T04:53:16.741Z,35.80
2018-04-18T04:54:16.733Z,39.50
2018-04-18T04:55:16.750Z,36.50
2018-04-18T04:56:16.768Z,38.80
2018-04-18T04:57:16.784Z,35.90
2018-04-18T04:58:16.804Z,38.00
2018-04-18T04:59:16.814Z,38.00
2018-04-18T05:00:16.829Z,37.80
2018-04-18T05:01:16.845Z,40.10
2018-04-18T05:02:16.863Z,39.70
2018-04-18T05:03:16.881Z,39.90
2018-04-18T05:04:18.586Z,35.80
2018-04-18T05:05:17.230Z,37.80
2018-04-18T05:06:17.558Z,39.90
2018-04-18T05:07:18.875Z,36.50
2018-04-18T05:08:17.134Z,35.90
2018-04-18T05:09:17.095Z,35.40
2018-04-18T05:10:17.432Z,35.40
2018-04-18T05:11:17.870Z,41.60
2018-04-18T05:12:18.156Z,35.40
2018-04-18T05:13:17.038Z,37.30
2018-04-18T05:14:17.054Z,37.50
2018-04-18T05:15:17.065Z,38.60
2018-04-18T05:16:17.077Z,35.50
2018-04-18T05:17:17.096Z,36.70
2018-04-18T05:18:17.113Z,34.20
2018-04-18T05:19:17.128Z,40.40
2018-04-18T05:20:17.142Z,35.00
2018-04-18T05:21:17.165Z,34.00
2018-04-18T05:22:17.178Z,41.80
2018-04-18T05:23:17.191Z,40.30
2018-04-18T05:24:17.209Z,37.90
2018-04-18T05:25:17.250Z,39.40
2018-04-18T05:26:19.302Z,42.70
2018-04-18T05:27:17.253Z,38.30
2018-04-18T05:28:17.268Z,39.00
2018-04-18T05:29:17.282Z,44.00
2018-04-18T05:30:17.306Z,39.20
2018-04-18T05:31:17.314Z,42.30
2018-04-18T05:32:17.382Z,39.00
2018-04-18T05:33:17.346Z,36.80
2018-04-18T05:34:17.379Z,46.30
2018-04-18T05:35:17.392Z,43.90
2018-04-18T05:36:17.392Z,42.10
2018-04-18T05:37:17.415Z,41.70
2018-04-18T05:38:17.426Z,39.80
2018-04-18T05:39:17.440Z,41.80
2018-04-18T05:40:17.458Z,39.60
2018-04-18T05:41:17.480Z,40.80
2018-04-18T05:42:17.492Z,45.30
2018-04-18T05:43:17.626Z,36.30
2018-04-18T05:44:17.518Z,38.50
2018-04-18T05:45:17.535Z,40.70
2018-04-18T05:46:17.555Z,38.60
2018-04-18T05:47:17.567Z,39.90
2018-04-18T05:48:17.581Z,40.40
2018-04-18T05:49:17.598Z,39.20
2018-04-18T05:50:17.623Z,41.30
2018-04-18T05:51:17.642Z,40.90
2018-04-18T05:52:17.645Z,37.60
2018-04-18T05:53:17.675Z,39.00
2018-04-18T05:54:17.679Z,37.70
2018-04-18T05:55:17.697Z,35.20
2018-04-18T05:56:17.712Z,34.30
2018-04-18T05:57:17.726Z,36.20
2018-04-18T05:58:17.742Z,39.90
2018-04-18T05:59:17.765Z,41.10
2018-04-18T06:00:17.772Z,38.50
2018-04-18T06:01:17.789Z,34.10
2018-04-18T06:02:17.803Z,34.50
2018-04-18T06:03:17.819Z,41.80
2018-04-18T06:04:17.835Z,40.00
2018-04-18T06:05:17.858Z,39.10
2018-04-18T06:06:17.918Z,35.70
2018-04-18T06:07:17.884Z,36.10
2018-04-18T06:08:17.900Z,36.90
2018-04-18T06:09:17.918Z,38.00
2018-04-18T06:10:17.934Z,36.60
2018-04-18T06:11:17.980Z,38.20
2018-04-18T06:12:17.962Z,34.90
2018-04-18T06:13:17.981Z,34.10
2018-04-18T06:14:17.994Z,38.40
2018-04-18T06:15:18.128Z,36.60
2018-04-18T06:16:18.986Z,39.20
2018-04-18T06:17:18.260Z,34.10
2018-04-18T06:18:18.059Z,33.80
2018-04-18T06:19:18.076Z,37.10
2018-04-18T06:20:18.115Z,37.00
2018-04-18T06:21:18.235Z,38.20
2018-04-18T06:22:18.125Z,37.40
2018-04-18T06:23:18.137Z,38.80
2018-04-18T06:24:18.157Z,37.30
2018-04-18T06:25:18.169Z,38.80
2018-04-18T06:26:18.197Z,41.30
2018-04-18T06:27:18.207Z,37.90
2018-04-18T06:28:18.216Z,39.60
2018-04-18T06:29:18.235Z,37.80
2018-04-18T06:30:18.250Z,38.30
2018-04-18T06:31:18.303Z,35.90
2018-04-18T06:32:18.285Z,40.00
2018-04-18T06:33:18.300Z,40.40
2018-04-18T06:34:18.316Z,63.00
2018-04-18T06:35:18.330Z,46.80
2018-04-18T06:36:18.600Z,46.40
2018-04-18T06:37:18.363Z,43.40
2018-04-18T06:38:18.380Z,40.30
2018-04-18T06:39:18.400Z,41.20
2018-04-18T06:40:18.413Z,41.00
2018-04-18T06:41:18.437Z,41.10
2018-04-18T06:42:18.444Z,44.40
2018-04-18T06:43:18.472Z,41.90
2018-04-18T06:44:18.480Z,44.50
2018-04-18T06:45:18.573Z,49.40
2018-04-18T06:46:18.502Z,43.80
2018-04-18T06:47:18.527Z,44.30
2018-04-18T06:48:19.250Z,49.70
2018-04-18T06:49:18.558Z,48.20
2018-04-18T06:50:18.573Z,46.40
2018-04-18T06:51:18.588Z,46.70
2018-04-18T06:52:18.603Z,45.10
2018-04-18T06:53:18.617Z,49.00
2018-04-18T06:54:18.632Z,46.00
2018-04-18T06:55:18.649Z,52.00
2018-04-18T06:56:18.673Z,51.50
2018-04-18T06:57:18.686Z,51.00
2018-04-18T06:58:18.702Z,49.00
2018-04-18T06:59:18.715Z,48.60
2018-04-18T07:00:18.745Z,45.90
2018-04-18T07:01:18.753Z,50.20
2018-04-18T07:02:18.765Z,54.20
2018-04-18T07:03:19.106Z,53.20
2018-04-18T07:04:18.800Z,49.70
2018-04-18T07:05:18.815Z,52.50
2018-04-18T07:06:18.830Z,57.70
2018-04-18T07:07:18.850Z,51.60
2018-04-18T07:08:18.864Z,54.60
2018-04-18T07:09:18.882Z,60.30
2018-04-18T07:10:18.909Z,60.90
2018-04-18T07:11:18.923Z,58.30
2018-04-18T07:12:18.937Z,57.70
2018-04-18T07:13:18.952Z,61.00
2018-04-18T07:14:19.382Z,58.00
2018-04-18T07:15:18.981Z,63.10
2018-04-18T07:16:19.002Z,57.30
2018-04-18T07:17:19.017Z,54.00
2018-04-18T07:18:19.229Z,49.40
2018-04-18T07:19:19.056Z,53.90
2018-04-18T07:20:19.223Z,54.70
2018-04-18T07:21:19.129Z,54.70
2018-04-18T07:22:19.206Z,51.20
2018-04-18T07:23:19.140Z,55.00
2018-04-18T07:24:19.139Z,55.00
2018-04-18T07:25:19.156Z,52.80
2018-04-18T07:26:19.183Z,51.50
2018-04-18T07:27:19.183Z,54.00
2018-04-18T07:28:19.211Z,58.80
2018-04-18T07:29:19.231Z,57.20
2018-04-18T07:30:19.257Z,57.80
2018-04-18T07:31:19.263Z,56.00
2018-04-18T07:32:19.268Z,50.90
2018-04-18T07:33:19.282Z,54.60
2018-04-18T07:34:19.339Z,58.10
2018-04-18T07:35:19.317Z,50.90
2018-04-18T07:36:19.336Z,54.20
2018-04-18T07:37:19.352Z,51.70
2018-04-18T07:38:19.381Z,53.80
2018-04-18T07:39:19.424Z,61.70
2018-04-18T07:40:19.409Z,53.40
2018-04-18T07:41:19.543Z,52.70
2018-04-18T07:42:19.438Z,50.00
2018-04-18T07:43:19.453Z,49.80
2018-04-18T07:44:19.470Z,56.10
2018-04-18T07:45:19.486Z,51.10
2018-04-18T07:46:19.544Z,54.40
2018-04-18T07:47:19.521Z,48.90
2018-04-18T07:48:19.539Z,44.20
2018-04-18T07:49:19.556Z,41.80
2018-04-18T07:50:19.581Z,40.00
2018-04-18T07:51:19.606Z,45.10
2018-04-18T07:52:19.662Z,41.10
2018-04-18T07:53:19.625Z,41.00
2018-04-18T07:54:19.642Z,38.60
2018-04-18T07:55:19.673Z,38.70
2018-04-18T07:56:20.712Z,39.50
2018-04-18T07:57:20.559Z,35.80
2018-04-18T07:58:19.847Z,34.00
2018-04-18T07:59:20.150Z,39.10
2018-04-18T08:00:19.746Z,37.60
2018-04-18T08:01:20.335Z,33.90
2018-04-18T08:02:19.781Z,36.20
2018-04-18T08:03:19.868Z,32.80
2018-04-18T08:04:19.813Z,32.80
2018-04-18T08:05:19.835Z,35.20
2018-04-18T08:06:19.938Z,33.50
2018-04-18T08:07:19.880Z,36.00
2018-04-18T08:08:19.886Z,36.40
2018-04-18T08:09:19.904Z,36.20
2018-04-18T08:10:19.917Z,32.10
2018-04-18T08:11:19.955Z,32.40
2018-04-18T08:12:19.954Z,35.80
2018-04-18T08:13:19.987Z,36.50
2018-04-18T08:14:20.041Z,33.00
2018-04-18T08:15:20.202Z,32.60
2018-04-18T08:16:20.034Z,35.20
2018-04-18T08:17:20.127Z,32.10
2018-04-18T08:18:20.207Z,33.10
2018-04-18T08:19:20.112Z,33.80
2018-04-18T08:20:20.275Z,32.20
2018-04-18T08:21:20.353Z,31.60
2018-04-18T08:22:20.128Z,30.00
2018-04-18T08:23:20.151Z,29.30
2018-04-18T08:24:20.163Z,31.70
2018-04-18T08:25:20.182Z,34.30
2018-04-18T08:26:20.222Z,31.80
2018-04-18T08:27:20.242Z,30.10
2018-04-18T08:28:20.233Z,29.10
2018-04-18T08:29:20.269Z,31.40
2018-04-18T08:30:20.275Z,32.30
2018-04-18T08:31:20.297Z,33.50
2018-04-18T08:32:20.308Z,31.00
2018-04-18T08:33:20.322Z,28.00
2018-04-18T08:34:20.340Z,32.70
2018-04-18T08:35:20.360Z,27.70
2018-04-18T08:36:20.374Z,29.80
2018-04-18T08:37:20.393Z,28.20
2018-04-18T08:38:20.461Z,28.50
2018-04-18T08:39:20.429Z,29.50
2018-04-18T08:40:20.453Z,29.30
2018-04-18T08:41:20.464Z,26.40
2018-04-18T08:42:20.506Z,26.00
2018-04-18T08:43:20.499Z,26.80
2018-04-18T08:44:20.876Z,27.00
2018-04-18T08:45:21.966Z,25.80
2018-04-18T08:46:20.553Z,22.70
2018-04-18T08:47:20.568Z,24.20
2018-04-18T08:48:20.586Z,24.10
2018-04-18T08:49:20.607Z,26.10
2018-04-18T08:50:20.853Z,25.10
2018-04-18T08:51:20.640Z,25.60
2018-04-18T08:52:20.659Z,25.00
2018-04-18T08:53:20.904Z,25.20
2018-04-18T08:54:20.897Z,25.40
2018-04-18T08:55:20.910Z,22.70
2018-04-18T08:56:20.731Z,26.60
2018-04-18T08:57:20.753Z,19.90
2018-04-18T08:58:20.766Z,21.80
2018-04-18T08:59:20.809Z,23.20
2018-04-18T09:00:20.816Z,19.50
2018-04-18T09:01:20.831Z,20.50
2018-04-18T09:02:20.838Z,17.50
2018-04-18T09:03:20.867Z,22.00
2018-04-18T09:04:21.070Z,20.00
2018-04-18T09:05:20.909Z,21.60
2018-04-18T09:06:20.913Z,22.40
2018-04-18T09:07:20.959Z,28.10
2018-04-18T09:08:20.946Z,20.60
2018-04-18T09:09:20.982Z,22.40
2018-04-18T09:10:20.995Z,18.40
2018-04-18T09:11:21.063Z,21.70
2018-04-18T09:12:21.018Z,20.30
2018-04-18T09:13:21.128Z,15.50
2018-04-18T09:14:21.107Z,20.30
2018-04-18T09:15:21.076Z,19.60
2018-04-18T09:16:21.095Z,20.10
2018-04-18T09:17:21.184Z,19.90
2018-04-18T09:18:21.145Z,19.50
2018-04-18T09:19:21.146Z,17.10
2018-04-18T09:20:21.309Z,21.40
2018-04-18T09:21:21.186Z,21.30
2018-04-18T09:22:21.406Z,18.30
2018-04-18T09:23:21.224Z,18.00
2018-04-18T09:24:21.241Z,20.80
2018-04-18T09:25:21.323Z,20.90
2018-04-18T09:26:21.285Z,20.10
2018-04-18T09:27:21.303Z,18.30
2018-04-18T09:28:21.524Z,19.10
2018-04-18T09:29:21.328Z,17.40
2018-04-18T09:30:21.358Z,16.50
2018-04-18T09:31:21.370Z,16.60
2018-04-18T09:32:21.406Z,18.70
2018-04-18T09:33:21.407Z,20.90
2018-04-18T09:34:21.426Z,15.30
2018-04-18T09:35:21.441Z,15.60
2018-04-18T09:36:21.510Z,16.40
2018-04-18T09:37:21.478Z,16.40
2018-04-18T09:38:21.496Z,19.10
2018-04-18T09:39:21.531Z,19.90
2018-04-18T09:40:21.534Z,19.00
2018-04-18T09:41:21.563Z,19.70
2018-04-18T09:42:21.570Z,23.40
2018-04-18T09:43:21.587Z,17.50
2018-04-18T09:44:21.623Z,17.10
2018-04-18T09:45:21.625Z,15.70
2018-04-18T09:46:21.670Z,22.30
2018-04-18T09:47:21.664Z,31.90
2018-04-18T09:48:21.692Z,33.20
2018-04-18T09:49:21.705Z,20.60
2018-04-18T09:50:21.729Z,17.20
2018-04-18T09:51:22.531Z,17.70
2018-04-18T09:52:21.765Z,15.80
2018-04-18T09:53:21.777Z,15.50
2018-04-18T09:54:21.940Z,13.40
2018-04-18T09:55:21.820Z,13.90
2018-04-18T09:56:21.862Z,13.20
2018-04-18T09:57:21.875Z,16.70
2018-04-18T09:58:21.934Z,17.40
2018-04-18T09:59:21.891Z,14.40
2018-04-18T10:00:21.922Z,14.70
2018-04-18T10:01:21.926Z,14.10
2018-04-18T10:02:21.943Z,14.60
2018-04-18T10:03:21.965Z,14.80
2018-04-18T10:04:21.999Z,13.60
2018-04-18T10:05:22.013Z,14.70
2018-04-18T10:06:22.029Z,14.90
2018-04-18T10:07:22.101Z,15.60
2018-04-18T10:08:22.062Z,15.50
2018-04-18T10:09:22.083Z,12.20
2018-04-18T10:10:22.185Z,13.40
2018-04-18T10:11:22.111Z,15.70
2018-04-18T10:12:22.137Z,14.10
2018-04-18T10:13:22.160Z,14.80
2018-04-18T10:14:22.233Z,14.10
2018-04-18T10:15:22.187Z,15.60
2018-04-18T10:16:22.675Z,21.30
2018-04-18T10:17:22.237Z,15.40
2018-04-18T10:18:22.244Z,17.00
2018-04-18T10:19:22.263Z,14.10
2018-04-18T10:20:22.280Z,18.20
2018-04-18T10:21:22.300Z,15.50
2018-04-18T10:22:22.322Z,18.80
2018-04-18T10:23:22.355Z,14.90
2018-04-18T10:24:22.359Z,17.30
2018-04-18T10:25:22.378Z,19.00
2018-04-18T10:26:22.394Z,16.80
2018-04-18T10:27:22.412Z,19.80
2018-04-18T10:28:22.430Z,17.50
2018-04-18T10:29:22.456Z,16.50
2018-04-18T10:30:22.468Z,16.20
2018-04-18T10:31:22.488Z,18.10
2018-04-18T10:32:22.508Z,17.10
2018-04-18T10:33:22.545Z,19.70
2018-04-18T10:34:22.545Z,18.90
2018-04-18T10:35:22.565Z,17.50
2018-04-18T10:36:22.583Z,16.80
2018-04-18T10:37:22.670Z,17.30
2018-04-18T10:38:22.641Z,18.00
2018-04-18T10:39:22.708Z,19.40
2018-04-18T10:40:22.745Z,19.30
2018-04-18T10:41:22.737Z,19.60
2018-04-18T10:42:22.825Z,20.50
2018-04-18T10:43:22.838Z,19.90
2018-04-18T10:44:22.962Z,17.30
2018-04-18T10:45:22.760Z,21.80
2018-04-18T10:46:22.778Z,15.30
2018-04-18T10:47:22.807Z,15.20
2018-04-18T10:48:22.896Z,20.30
2018-04-18T10:49:22.853Z,17.70
2018-04-18T10:50:22.856Z,20.90
2018-04-18T10:51:22.873Z,21.60
2018-04-18T10:52:22.921Z,17.20
2018-04-18T10:53:22.912Z,19.40
2018-04-18T10:54:23.072Z,18.50
2018-04-18T10:55:22.951Z,16.00
2018-04-18T10:56:22.969Z,17.40
2018-04-18T10:57:23.000Z,16.60
2018-04-18T10:58:23.011Z,18.80
2018-04-18T10:59:23.033Z,15.30
2018-04-18T11:00:23.049Z,15.70
2018-04-18T11:01:23.066Z,15.70
2018-04-18T11:02:23.086Z,18.60
2018-04-18T11:03:23.108Z,17.80
2018-04-18T11:04:23.133Z,17.10
2018-04-18T11:05:23.148Z,14.80
2018-04-18T11:06:23.179Z,17.50
2018-04-18T11:07:23.184Z,15.60
2018-04-18T11:08:23.204Z,19.90
2018-04-18T11:09:23.228Z,17.50
2018-04-18T11:10:23.245Z,15.20
2018-04-18T11:11:23.267Z,16.10
2018-04-18T11:12:23.283Z,18.60
2018-04-18T11:13:23.312Z,14.30
2018-04-18T11:14:23.325Z,14.60
2018-04-18T11:15:23.344Z,19.00
2018-04-18T11:16:23.372Z,15.00
2018-04-18T11:17:23.387Z,17.00
2018-04-18T11:18:23.401Z,16.30
2018-04-18T11:19:23.419Z,17.60
2018-04-18T11:20:23.445Z,13.50
2018-04-18T11:21:23.461Z,15.70
2018-04-18T11:22:23.479Z,15.20
2018-04-18T11:23:23.778Z,16.20
2018-04-18T11:24:23.541Z,15.80
2018-04-18T11:25:23.555Z,15.00
2018-04-18T11:26:23.560Z,16.90
2018-04-18T11:27:23.579Z,13.10
2018-04-18T11:28:24.144Z,17.20
2018-04-18T11:29:23.620Z,17.60
2018-04-18T11:30:23.640Z,16.20
2018-04-18T11:31:23.660Z,13.60
2018-04-18T11:32:23.678Z,14.90
2018-04-18T11:33:23.699Z,16.80
2018-04-18T11:34:23.758Z,15.50
2018-04-18T11:35:23.742Z,14.90
2018-04-18T11:36:23.758Z,14.30
2018-04-18T11:37:23.777Z,17.80
2018-04-18T11:38:23.801Z,13.70
2018-04-18T11:39:23.834Z,14.40
2018-04-18T11:40:23.847Z,15.90
2018-04-18T11:41:23.859Z,15.70
2018-04-18T11:42:23.924Z,18.70
2018-04-18T11:43:23.906Z,14.30
2018-04-18T11:44:23.920Z,14.50
2018-04-18T11:45:23.941Z,14.60
2018-04-18T11:46:23.961Z,14.80
2018-04-18T11:47:23.980Z,14.10
2018-04-18T11:48:24.148Z,16.30
2018-04-18T11:49:24.019Z,15.60
2018-04-18T11:50:24.040Z,16.10
2018-04-18T11:51:24.081Z,14.00
2018-04-18T11:52:24.082Z,14.50
2018-04-18T11:53:24.106Z,14.40
2018-04-18T11:54:24.120Z,14.40
2018-04-18T11:55:24.174Z,15.40
2018-04-18T11:57:24.364Z,16.40
2018-04-18T11:58:24.204Z,15.30
2018-04-18T11:59:24.222Z,16.70
2018-04-18T12:00:24.240Z,16.40
2018-04-18T12:01:24.267Z,17.00
2018-04-18T12:02:24.282Z,18.90
2018-04-18T12:03:24.308Z,16.40
2018-04-18T12:05:24.343Z,15.30
2018-04-18T12:06:24.368Z,16.60
2018-04-18T12:07:24.387Z,15.10
2018-04-18T12:08:24.409Z,15.80
2018-04-18T12:09:24.547Z,15.80
2018-04-18T12:10:24.498Z,16.50
2018-04-18T12:11:24.470Z,17.60
2018-04-18T12:12:24.497Z,17.50
2018-04-18T12:13:24.540Z,17.40
2018-04-18T12:14:24.530Z,20.20
2018-04-18T12:15:24.562Z,16.40
2018-04-18T12:16:24.575Z,18.90
2018-04-18T12:17:24.591Z,18.00
2018-04-18T12:18:24.625Z,19.90
2018-04-18T12:19:24.662Z,19.40
2018-04-18T12:20:24.656Z,17.00
2018-04-18T12:21:28.424Z,17.80
2018-04-18T12:22:24.694Z,18.10
2018-04-18T12:23:24.716Z,17.50
2018-04-18T12:24:26.400Z,20.40
2018-04-18T12:25:24.763Z,18.50
2018-04-18T12:26:24.783Z,20.50
2018-04-18T12:27:24.799Z,17.20
2018-04-18T12:28:24.822Z,21.50
2018-04-18T12:29:24.885Z,19.50
2018-04-18T12:30:24.879Z,18.20
2018-04-18T12:31:24.887Z,22.70
2018-04-18T12:32:24.904Z,20.20
2018-04-18T12:33:24.940Z,19.40
2018-04-18T12:34:25.052Z,18.90
2018-04-18T12:35:24.972Z,20.60
2018-04-18T12:36:24.993Z,17.30
2018-04-18T12:38:25.041Z,20.80
2018-04-18T12:39:25.064Z,21.70
2018-04-18T12:40:25.081Z,18.60
2018-04-18T12:41:25.114Z,18.30
2018-04-18T12:42:25.146Z,17.90
2018-04-18T12:43:25.153Z,22.80
2018-04-18T12:44:25.191Z,19.20
2018-04-18T12:45:25.194Z,19.40
2018-04-18T12:46:25.228Z,22.80
2018-04-18T12:47:25.254Z,25.00
2018-04-18T12:48:25.276Z,18.30
2018-04-18T12:49:25.269Z,20.20
2018-04-18T12:50:25.292Z,20.00
2018-04-18T12:51:25.316Z,19.40
2018-04-18T12:52:25.333Z,18.80
2018-04-18T12:53:25.382Z,19.20
2018-04-18T12:54:25.402Z,18.30
2018-04-18T12:55:25.398Z,22.90
2018-04-18T12:56:25.421Z,23.30